sensor_id;sensor_type;location;lat;lon;timestamp;pressure;altitude;pressure_sealevel;temperature;humidity
8298;BME280;4187;42.778;23.242;2023-04-19T00:01:03;94896.72;;;10.84;100.00
8298;BME280;4187;42.778;23.242;2023-04-19T00:03:30;94895.72;;;10.85;100.00
8298;BME280;4187;42.778;23.242;2023-04-19T00:05:57;94877.31;;;10.67;100.00
8298;BME280;4187;42.778;23.242;2023-04-19T00:08:25;94893.66;;;10.70;100.00
8298;BME280;4187;42.778;23.242;2023-04-19T00:10:52;94893.03;;;10.76;100.00
8298;BME280;4187;42.778;23.242;2023-04-19T00:13:19;94889.78;;;10.82;100.00
8298;BME280;4187;42.778;23.242;2023-04-19T00:15:46;94881.97;;;10.73;100.00
8298;BME280;4187;42.778;23.242;2023-04-19T00:18:15;94895.06;;;10.82;100.00
8298;BME280;4187;42.778;23.242;2023-04-19T00:20:43;94828.34;;;10.47;100.00
8298;BME280;4187;42.778;23.242;2023-04-19T00:23:10;94887.97;;;10.83;100.00
8298;BME280;4187;42.778;23.242;2023-04-19T00:25:37;94876.88;;;10.79;100.00
8298;BME280;4187;42.778;23.242;2023-04-19T00:28:04;94875.25;;;10.78;100.00
8298;BME280;4187;42.778;23.242;2023-04-19T00:30:31;94878.91;;;10.86;100.00
8298;BME280;4187;42.778;23.242;2023-04-19T00:32:59;94873.94;;;10.82;100.00
8298;BME280;4187;42.778;23.242;2023-04-19T00:35:27;94871.59;;;10.79;100.00
8298;BME280;4187;42.778;23.242;2023-04-19T00:37:55;94874.59;;;10.85;100.00
8298;BME280;4187;42.778;23.242;2023-04-19T00:40:22;94859.03;;;10.73;100.00
8298;BME280;4187;42.778;23.242;2023-04-19T00:42:49;94869.91;;;10.70;100.00
8298;BME280;4187;42.778;23.242;2023-04-19T00:45:16;94877.50;;;10.73;100.00
8298;BME280;4187;42.778;23.242;2023-04-19T00:47:43;94882.78;;;10.73;100.00
8298;BME280;4187;42.778;23.242;2023-04-19T00:50:11;94881.09;;;10.64;100.00
8298;BME280;4187;42.778;23.242;2023-04-19T00:52:40;94880.38;;;10.62;100.00
8298;BME280;4187;42.778;23.242;2023-04-19T00:55:08;94874.91;;;10.56;100.00
8298;BME280;4187;42.778;23.242;2023-04-19T00:57:36;94877.34;;;10.49;100.00
8298;BME280;4187;42.778;23.242;2023-04-19T01:00:04;94872.53;;;10.45;100.00
8298;BME280;4187;42.778;23.242;2023-04-19T01:02:33;94862.75;;;10.37;100.00
8298;BME280;4187;42.778;23.242;2023-04-19T01:05:00;94873.00;;;10.40;100.00
8298;BME280;4187;42.778;23.242;2023-04-19T01:07:28;94869.47;;;10.32;100.00
8298;BME280;4187;42.778;23.242;2023-04-19T01:09:56;94861.13;;;10.18;100.00
8298;BME280;4187;42.778;23.242;2023-04-19T01:12:23;94852.75;;;10.23;100.00
8298;BME280;4187;42.778;23.242;2023-04-19T01:14:50;94858.69;;;10.25;100.00
8298;BME280;4187;42.778;23.242;2023-04-19T01:17:17;94864.59;;;10.19;100.00
8298;BME280;4187;42.778;23.242;2023-04-19T01:19:45;94859.38;;;10.09;100.00
8298;BME280;4187;42.778;23.242;2023-04-19T01:22:15;94863.13;;;10.07;100.00
8298;BME280;4187;42.778;23.242;2023-04-19T01:24:43;94862.75;;;10.02;100.00
8298;BME280;4187;42.778;23.242;2023-04-19T01:27:10;94861.41;;;9.98;100.00
8298;BME280;4187;42.778;23.242;2023-04-19T01:29:38;94866.66;;;9.98;100.00
8298;BME280;4187;42.778;23.242;2023-04-19T01:32:06;94867.75;;;10.05;100.00
8298;BME280;4187;42.778;23.242;2023-04-19T01:34:33;94857.13;;;9.97;100.00
8298;BME280;4187;42.778;23.242;2023-04-19T01:37:00;94859.06;;;9.95;100.00
8298;BME280;4187;42.778;23.242;2023-04-19T01:39:29;94857.50;;;10.02;100.00
8298;BME280;4187;42.778;23.242;2023-04-19T01:41:56;94854.47;;;9.97;100.00
8298;BME280;4187;42.778;23.242;2023-04-19T01:44:23;94851.97;;;9.95;100.00
8298;BME280;4187;42.778;23.242;2023-04-19T01:46:50;94853.66;;;9.96;100.00
8298;BME280;4187;42.778;23.242;2023-04-19T01:49:17;94854.19;;;10.00;100.00
8298;BME280;4187;42.778;23.242;2023-04-19T01:51:44;94847.91;;;10.01;100.00
8298;BME280;4187;42.778;23.242;2023-04-19T01:54:11;94830.06;;;9.95;100.00
8298;BME280;4187;42.778;23.242;2023-04-19T01:56:40;94846.94;;;10.02;100.00
8298;BME280;4187;42.778;23.242;2023-04-19T01:59:07;94847.91;;;10.01;100.00
8298;BME280;4187;42.778;23.242;2023-04-19T02:01:34;94852.81;;;9.96;100.00
8298;BME280;4187;42.778;23.242;2023-04-19T02:04:01;94839.19;;;9.83;100.00
8298;BME280;4187;42.778;23.242;2023-04-19T02:06:28;94850.78;;;9.90;100.00
8298;BME280;4187;42.778;23.242;2023-04-19T02:08:56;94846.63;;;9.87;100.00
8298;BME280;4187;42.778;23.242;2023-04-19T02:11:23;94847.19;;;9.91;100.00
8298;BME280;4187;42.778;23.242;2023-04-19T02:13:51;94849.16;;;9.89;100.00
8298;BME280;4187;42.778;23.242;2023-04-19T02:16:18;94842.97;;;9.80;100.00
8298;BME280;4187;42.778;23.242;2023-04-19T02:18:45;94848.06;;;9.82;100.00
8298;BME280;4187;42.778;23.242;2023-04-19T02:21:14;94849.16;;;9.89;100.00
8298;BME280;4187;42.778;23.242;2023-04-19T02:23:41;94860.66;;;9.88;100.00
8298;BME280;4187;42.778;23.242;2023-04-19T02:26:08;94843.50;;;9.84;100.00
8298;BME280;4187;42.778;23.242;2023-04-19T02:28:36;94837.41;;;9.83;100.00
8298;BME280;4187;42.778;23.242;2023-04-19T02:31:05;94849.56;;;9.84;100.00
8298;BME280;4187;42.778;23.242;2023-04-19T02:33:33;94851.00;;;9.79;100.00
8298;BME280;4187;42.778;23.242;2023-04-19T02:36:00;94849.97;;;9.72;100.00
8298;BME280;4187;42.778;23.242;2023-04-19T02:38:30;94843.19;;;9.69;100.00
8298;BME280;4187;42.778;23.242;2023-04-19T02:40:57;94844.31;;;9.67;100.00
8298;BME280;4187;42.778;23.242;2023-04-19T02:43:25;94797.72;;;9.32;100.00
8298;BME280;4187;42.778;23.242;2023-04-19T02:45:52;94846.03;;;9.58;100.00
8298;BME280;4187;42.778;23.242;2023-04-19T02:48:21;94848.84;;;9.56;100.00
8298;BME280;4187;42.778;23.242;2023-04-19T02:50:48;94846.56;;;9.61;100.00
8298;BME280;4187;42.778;23.242;2023-04-19T02:53:15;94823.00;;;9.42;100.00
8298;BME280;4187;42.778;23.242;2023-04-19T02:55:42;94840.13;;;9.46;100.00
8298;BME280;4187;42.778;23.242;2023-04-19T02:58:09;94835.66;;;9.56;100.00
8298;BME280;4187;42.778;23.242;2023-04-19T03:00:37;94842.19;;;9.52;100.00
8298;BME280;4187;42.778;23.242;2023-04-19T03:03:04;94836.63;;;9.55;100.00
8298;BME280;4187;42.778;23.242;2023-04-19T03:05:33;94841.81;;;9.47;100.00
8298;BME280;4187;42.778;23.242;2023-04-19T03:08:00;94815.38;;;9.39;100.00
8298;BME280;4187;42.778;23.242;2023-04-19T03:10:27;94839.72;;;9.51;100.00
8298;BME280;4187;42.778;23.242;2023-04-19T03:12:55;94835.66;;;9.56;100.00
8298;BME280;4187;42.778;23.242;2023-04-19T03:15:22;94831.66;;;9.52;100.00
8298;BME280;4187;42.778;23.242;2023-04-19T03:17:49;94843.19;;;9.51;100.00
8298;BME280;4187;42.778;23.242;2023-04-19T03:20:16;94845.41;;;9.46;100.00
8298;BME280;4187;42.778;23.242;2023-04-19T03:22:46;94838.94;;;9.41;100.00
8298;BME280;4187;42.778;23.242;2023-04-19T03:25:14;94837.88;;;9.34;100.00
8298;BME280;4187;42.778;23.242;2023-04-19T03:27:42;94813.56;;;9.22;100.00
8298;BME280;4187;42.778;23.242;2023-04-19T03:30:11;94836.47;;;9.39;100.00
8298;BME280;4187;42.778;23.242;2023-04-19T03:32:38;94836.53;;;9.30;100.00
8298;BME280;4187;42.778;23.242;2023-04-19T03:35:06;94838.75;;;9.25;100.00
8298;BME280;4187;42.778;23.242;2023-04-19T03:37:34;94839.59;;;9.25;100.00
8298;BME280;4187;42.778;23.242;2023-04-19T03:40:03;94832.69;;;9.24;100.00
8298;BME280;4187;42.778;23.242;2023-04-19T03:42:30;94837.94;;;9.24;100.00
8298;BME280;4187;42.778;23.242;2023-04-19T03:44:57;94841.75;;;9.12;100.00
8298;BME280;4187;42.778;23.242;2023-04-19T03:47:24;94841.63;;;9.14;100.00
8298;BME280;4187;42.778;23.242;2023-04-19T03:49:51;94838.97;;;9.14;100.00
8298;BME280;4187;42.778;23.242;2023-04-19T03:52:18;94838.81;;;9.15;100.00
8298;BME280;4187;42.778;23.242;2023-04-19T03:54:45;94846.72;;;9.15;100.00
8298;BME280;4187;42.778;23.242;2023-04-19T03:57:16;94826.41;;;9.08;100.00
8298;BME280;4187;42.778;23.242;2023-04-19T03:59:43;94838.88;;;9.06;100.00
8298;BME280;4187;42.778;23.242;2023-04-19T04:02:10;94841.50;;;9.06;100.00
8298;BME280;4187;42.778;23.242;2023-04-19T04:04:37;94806.28;;;8.89;100.00
8298;BME280;4187;42.778;23.242;2023-04-19T04:07:05;94843.03;;;9.08;100.00
8298;BME280;4187;42.778;23.242;2023-04-19T04:09:32;94841.34;;;9.07;100.00
8298;BME280;4187;42.778;23.242;2023-04-19T04:11:58;94834.66;;;9.40;100.00
8298;BME280;4187;42.778;23.242;2023-04-19T04:14:27;94833.00;;;10.53;100.00
8298;BME280;4187;42.778;23.242;2023-04-19T04:16:54;94844.94;;;10.91;100.00
8298;BME280;4187;42.778;23.242;2023-04-19T04:19:21;94861.66;;;11.41;100.00
8298;BME280;4187;42.778;23.242;2023-04-19T04:21:48;94847.28;;;11.85;100.00
8298;BME280;4187;42.778;23.242;2023-04-19T04:24:15;94854.38;;;11.93;100.00
8298;BME280;4187;42.778;23.242;2023-04-19T04:26:42;94853.13;;;11.63;100.00
8298;BME280;4187;42.778;23.242;2023-04-19T04:29:09;94868.53;;;11.26;100.00
8298;BME280;4187;42.778;23.242;2023-04-19T04:31:38;94831.03;;;10.55;100.00
8298;BME280;4187;42.778;23.242;2023-04-19T04:34:05;94864.31;;;10.48;100.00
8298;BME280;4187;42.778;23.242;2023-04-19T04:36:33;94850.06;;;10.15;100.00
8298;BME280;4187;42.778;23.242;2023-04-19T04:39:01;94868.25;;;10.08;100.00
8298;BME280;4187;42.778;23.242;2023-04-19T04:41:28;94852.34;;;10.00;100.00
8298;BME280;4187;42.778;23.242;2023-04-19T04:43:56;94860.19;;;9.92;100.00
8298;BME280;4187;42.778;23.242;2023-04-19T04:46:25;94866.13;;;9.77;100.00
8298;BME280;4187;42.778;23.242;2023-04-19T04:48:53;94855.81;;;9.66;100.00
8298;BME280;4187;42.778;23.242;2023-04-19T04:51:20;94844.78;;;9.62;100.00
8298;BME280;4187;42.778;23.242;2023-04-19T04:53:48;94863.06;;;9.63;100.00
8298;BME280;4187;42.778;23.242;2023-04-19T04:56:15;94867.28;;;9.56;100.00
8298;BME280;4187;42.778;23.242;2023-04-19T04:58:42;94869.91;;;9.56;100.00
8298;BME280;4187;42.778;23.242;2023-04-19T05:01:09;94862.13;;;9.55;100.00
8298;BME280;4187;42.778;23.242;2023-04-19T05:03:36;94872.28;;;9.50;100.00
8298;BME280;4187;42.778;23.242;2023-04-19T05:06:05;94865.75;;;9.54;100.00
8298;BME280;4187;42.778;23.242;2023-04-19T05:08:32;94860.16;;;9.57;100.00
8298;BME280;4187;42.778;23.242;2023-04-19T05:10:59;94868.28;;;9.73;100.00
8298;BME280;4187;42.778;23.242;2023-04-19T05:13:26;94869.06;;;9.74;100.00
8298;BME280;4187;42.778;23.242;2023-04-19T05:15:53;94869.81;;;9.66;100.00
8298;BME280;4187;42.778;23.242;2023-04-19T05:18:20;94877.59;;;9.68;100.00
8298;BME280;4187;42.778;23.242;2023-04-19T05:20:48;94877.97;;;9.73;100.00
8298;BME280;4187;42.778;23.242;2023-04-19T05:23:18;94871.72;;;9.74;100.00
8298;BME280;4187;42.778;23.242;2023-04-19T05:25:45;94859.44;;;9.82;100.00
8298;BME280;4187;42.778;23.242;2023-04-19T05:28:12;94875.63;;;9.87;100.00
8298;BME280;4187;42.778;23.242;2023-04-19T05:30:40;94877.97;;;9.90;100.00
8298;BME280;4187;42.778;23.242;2023-04-19T05:33:06;94872.94;;;9.97;100.00
8298;BME280;4187;42.778;23.242;2023-04-19T05:35:33;94878.41;;;10.03;100.00
8298;BME280;4187;42.778;23.242;2023-04-19T05:38:00;94879.31;;;10.12;100.00
8298;BME280;4187;42.778;23.242;2023-04-19T05:40:29;94885.81;;;10.17;100.00
8298;BME280;4187;42.778;23.242;2023-04-19T05:42:57;94846.09;;;10.01;100.00
8298;BME280;4187;42.778;23.242;2023-04-19T05:45:24;94874.31;;;10.18;100.00
8298;BME280;4187;42.778;23.242;2023-04-19T05:47:52;94874.22;;;10.28;100.00
8298;BME280;4187;42.778;23.242;2023-04-19T05:50:19;94863.13;;;10.25;100.00
8298;BME280;4187;42.778;23.242;2023-04-19T05:52:46;94884.00;;;10.36;100.00
8298;BME280;4187;42.778;23.242;2023-04-19T05:55:13;94880.84;;;10.32;100.00
8298;BME280;4187;42.778;23.242;2023-04-19T05:57:42;94884.22;;;10.42;100.00
8298;BME280;4187;42.778;23.242;2023-04-19T06:00:11;94884.44;;;10.49;100.00
8298;BME280;4187;42.778;23.242;2023-04-19T06:02:38;94873.72;;;10.50;100.00
8298;BME280;4187;42.778;23.242;2023-04-19T06:05:05;94882.97;;;10.54;100.00
8298;BME280;4187;42.778;23.242;2023-04-19T06:07:33;94887.81;;;10.59;100.00
8298;BME280;4187;42.778;23.242;2023-04-19T06:10:00;94880.72;;;10.59;100.00
8298;BME280;4187;42.778;23.242;2023-04-19T06:12:27;94883.50;;;10.58;100.00
8298;BME280;4187;42.778;23.242;2023-04-19T06:14:56;94889.72;;;10.49;100.00
8298;BME280;4187;42.778;23.242;2023-04-19T06:17:23;94884.44;;;10.49;100.00
8298;BME280;4187;42.778;23.242;2023-04-19T06:19:50;94883.66;;;10.56;100.00
8298;BME280;4187;42.778;23.242;2023-04-19T06:22:17;94886.00;;;10.59;100.00
8298;BME280;4187;42.778;23.242;2023-04-19T06:24:45;94881.03;;;10.56;100.00
8298;BME280;4187;42.778;23.242;2023-04-19T06:27:13;94890.16;;;10.62;100.00
8298;BME280;4187;42.778;23.242;2023-04-19T06:29:41;94883.97;;;10.53;100.00
8298;BME280;4187;42.778;23.242;2023-04-19T06:32:09;94888.78;;;10.58;100.00
8298;BME280;4187;42.778;23.242;2023-04-19T06:34:37;94887.50;;;10.62;100.00
8298;BME280;4187;42.778;23.242;2023-04-19T06:37:04;94896.69;;;10.58;100.00
8298;BME280;4187;42.778;23.242;2023-04-19T06:39:31;94881.91;;;10.65;100.00
8298;BME280;4187;42.778;23.242;2023-04-19T06:41:58;94889.41;;;10.77;100.00
8298;BME280;4187;42.778;23.242;2023-04-19T06:44:25;94877.50;;;10.73;100.00
8298;BME280;4187;42.778;23.242;2023-04-19T06:46:52;94899.09;;;10.95;100.00
8298;BME280;4187;42.778;23.242;2023-04-19T06:49:21;94868.50;;;10.84;100.00
8298;BME280;4187;42.778;23.242;2023-04-19T06:51:48;94899.59;;;10.98;100.00
8298;BME280;4187;42.778;23.242;2023-04-19T06:54:15;94898.75;;;10.98;100.00
8298;BME280;4187;42.778;23.242;2023-04-19T06:56:43;94900.44;;;10.99;100.00
8298;BME280;4187;42.778;23.242;2023-04-19T06:59:12;94908.59;;;11.13;100.00
8298;BME280;4187;42.778;23.242;2023-04-19T07:01:39;94910.38;;;11.05;100.00
8298;BME280;4187;42.778;23.242;2023-04-19T07:04:07;94909.41;;;11.14;100.00
8298;BME280;4187;42.778;23.242;2023-04-19T07:06:36;94908.97;;;11.18;100.00
8298;BME280;4187;42.778;23.242;2023-04-19T07:09:04;94916.56;;;11.21;100.00
8298;BME280;4187;42.778;23.242;2023-04-19T07:11:31;94920.09;;;11.30;100.00
8298;BME280;4187;42.778;23.242;2023-04-19T07:14:00;94889.63;;;11.18;100.00
8298;BME280;4187;42.778;23.242;2023-04-19T07:16:32;94902.22;;;11.24;100.00
8298;BME280;4187;42.778;23.242;2023-04-19T07:19:00;94918.81;;;11.42;100.00
8298;BME280;4187;42.778;23.242;2023-04-19T07:21:27;94903.72;;;11.26;100.00
8298;BME280;4187;42.778;23.242;2023-04-19T07:23:59;94912.50;;;11.35;100.00
8298;BME280;4187;42.778;23.242;2023-04-19T07:26:26;94912.53;;;11.43;100.00
8298;BME280;4187;42.778;23.242;2023-04-19T07:28:53;94919.13;;;11.39;100.00
8298;BME280;4187;42.778;23.242;2023-04-19T07:31:21;94918.31;;;11.47;100.00
8298;BME280;4187;42.778;23.242;2023-04-19T07:33:49;94893.31;;;11.33;100.00
8298;BME280;4187;42.778;23.242;2023-04-19T07:36:16;94914.22;;;11.52;100.00
8298;BME280;4187;42.778;23.242;2023-04-19T07:38:44;94898.69;;;11.49;100.00
8298;BME280;4187;42.778;23.242;2023-04-19T07:41:12;94924.19;;;11.66;100.00
8298;BME280;4187;42.778;23.242;2023-04-19T07:43:39;94920.94;;;11.72;100.00
8298;BME280;4187;42.778;23.242;2023-04-19T07:46:08;94913.28;;;11.61;100.00
8298;BME280;4187;42.778;23.242;2023-04-19T07:48:36;94915.00;;;11.70;100.00
8298;BME280;4187;42.778;23.242;2023-04-19T07:51:08;94920.28;;;11.70;100.00
8298;BME280;4187;42.778;23.242;2023-04-19T07:53:42;94916.00;;;11.77;100.00
8298;BME280;4187;42.778;23.242;2023-04-19T07:56:11;94918.13;;;11.74;100.00
8298;BME280;4187;42.778;23.242;2023-04-19T07:58:39;94914.34;;;11.84;100.00
8298;BME280;4187;42.778;23.242;2023-04-19T08:01:13;94927.28;;;11.95;100.00
8298;BME280;4187;42.778;23.242;2023-04-19T08:03:40;94916.72;;;12.04;100.00
8298;BME280;4187;42.778;23.242;2023-04-19T08:06:07;94923.00;;;12.03;100.00
8298;BME280;4187;42.778;23.242;2023-04-19T08:08:34;94894.25;;;11.99;100.00
8298;BME280;4187;42.778;23.242;2023-04-19T08:11:02;94910.28;;;12.14;100.00
8298;BME280;4187;42.778;23.242;2023-04-19T08:13:32;94934.13;;;12.30;100.00
8298;BME280;4187;42.778;23.242;2023-04-19T08:16:00;94928.03;;;12.30;100.00
8298;BME280;4187;42.778;23.242;2023-04-19T08:18:27;94915.13;;;12.35;100.00
8298;BME280;4187;42.778;23.242;2023-04-19T08:20:54;94918.41;;;12.37;100.00
8298;BME280;4187;42.778;23.242;2023-04-19T08:23:23;94918.41;;;12.37;100.00
8298;BME280;4187;42.778;23.242;2023-04-19T08:25:50;94921.91;;;12.53;100.00
8298;BME280;4187;42.778;23.242;2023-04-19T08:28:17;94923.22;;;12.57;100.00
8298;BME280;4187;42.778;23.242;2023-04-19T08:30:46;94928.34;;;12.67;100.00
8298;BME280;4187;42.778;23.242;2023-04-19T08:33:13;94917.13;;;12.73;100.00
8298;BME280;4187;42.778;23.242;2023-04-19T08:35:40;94919.75;;;12.73;100.00
8298;BME280;4187;42.778;23.242;2023-04-19T08:38:07;94901.22;;;12.73;100.00
8298;BME280;4187;42.778;23.242;2023-04-19T08:40:40;94916.91;;;13.07;100.00
8298;BME280;4187;42.778;23.242;2023-04-19T08:43:10;94920.53;;;13.14;100.00
8298;BME280;4187;42.778;23.242;2023-04-19T08:45:38;94924.53;;;13.18;100.00
8298;BME280;4187;42.778;23.242;2023-04-19T08:48:08;94923.00;;;13.24;100.00
8298;BME280;4187;42.778;23.242;2023-04-19T08:50:40;94901.50;;;13.18;100.00
8298;BME280;4187;42.778;23.242;2023-04-19T08:53:07;94896.19;;;13.27;100.00
8298;BME280;4187;42.778;23.242;2023-04-19T08:55:37;94922.06;;;13.55;100.00
8298;BME280;4187;42.778;23.242;2023-04-19T08:58:06;94912.53;;;13.77;100.00
8298;BME280;4187;42.778;23.242;2023-04-19T09:00:37;94913.94;;;13.96;100.00
8298;BME280;4187;42.778;23.242;2023-04-19T09:03:07;94905.16;;;13.95;100.00
8298;BME280;4187;42.778;23.242;2023-04-19T09:05:34;94882.78;;;13.90;100.00
8298;BME280;4187;42.778;23.242;2023-04-19T09:08:21;94908.31;;;14.21;100.00
8298;BME280;4187;42.778;23.242;2023-04-19T09:10:52;94855.00;;;14.08;100.00
8298;BME280;4187;42.778;23.242;2023-04-19T09:13:22;94906.31;;;14.54;100.00
8298;BME280;4187;42.778;23.242;2023-04-19T09:15:49;94894.84;;;14.54;100.00
8298;BME280;4187;42.778;23.242;2023-04-19T09:18:19;94902.19;;;14.66;100.00
8298;BME280;4187;42.778;23.242;2023-04-19T09:20:46;94891.09;;;14.63;100.00
8298;BME280;4187;42.778;23.242;2023-04-19T09:23:14;94896.47;;;14.77;100.00
8298;BME280;4187;42.778;23.242;2023-04-19T09:25:51;94901.50;;;14.72;100.00
8298;BME280;4187;42.778;23.242;2023-04-19T09:28:18;94867.75;;;14.58;100.00
8298;BME280;4187;42.778;23.242;2023-04-19T09:30:46;94873.47;;;14.70;100.00
8298;BME280;4187;42.778;23.242;2023-04-19T09:33:13;94892.00;;;14.92;100.00
8298;BME280;4187;42.778;23.242;2023-04-19T09:35:45;94883.03;;;14.93;100.00
8298;BME280;4187;42.778;23.242;2023-04-19T09:38:14;94889.28;;;15.15;100.00
8298;BME280;4187;42.778;23.242;2023-04-19T09:40:42;94882.34;;;15.29;100.00
8298;BME280;4187;42.778;23.242;2023-04-19T09:43:09;94891.31;;;15.42;100.00
8298;BME280;4187;42.778;23.242;2023-04-19T09:45:40;94893.44;;;15.47;100.00
8298;BME280;4187;42.778;23.242;2023-04-19T09:48:08;94867.75;;;15.25;100.00
8298;BME280;4187;42.778;23.242;2023-04-19T09:50:36;94887.59;;;15.51;100.00
8298;BME280;4187;42.778;23.242;2023-04-19T09:53:18;94884.81;;;15.74;98.91
8298;BME280;4187;42.778;23.242;2023-04-19T09:55:45;94894.97;;;15.85;99.08
8298;BME280;4187;42.778;23.242;2023-04-19T09:58:12;94874.91;;;16.19;100.00
8298;BME280;4187;42.778;23.242;2023-04-19T10:00:40;94874.34;;;16.65;98.08
8298;BME280;4187;42.778;23.242;2023-04-19T10:03:08;94878.50;;;16.96;97.26
8298;BME280;4187;42.778;23.242;2023-04-19T10:05:37;94815.91;;;16.85;93.98
8298;BME280;4187;42.778;23.242;2023-04-19T10:08:06;94875.44;;;17.26;93.43
8298;BME280;4187;42.778;23.242;2023-04-19T10:10:35;94816.34;;;16.89;92.82
8298;BME280;4187;42.778;23.242;2023-04-19T10:13:05;94878.28;;;17.18;89.54
8298;BME280;4187;42.778;23.242;2023-04-19T10:15:33;94859.66;;;16.97;91.80
8298;BME280;4187;42.778;23.242;2023-04-19T10:18:01;94861.38;;;17.11;92.55
8298;BME280;4187;42.778;23.242;2023-04-19T10:20:35;94868.50;;;17.32;91.26
8298;BME280;4187;42.778;23.242;2023-04-19T10:23:06;94859.63;;;17.25;88.29
8298;BME280;4187;42.778;23.242;2023-04-19T10:25:36;94860.91;;;17.29;90.51
8298;BME280;4187;42.778;23.242;2023-04-19T10:28:03;94854.78;;;17.35;89.95
8298;BME280;4187;42.778;23.242;2023-04-19T10:30:30;94851.38;;;17.48;90.21
8298;BME280;4187;42.778;23.242;2023-04-19T10:32:58;94847.63;;;17.42;87.00
8298;BME280;4187;42.778;23.242;2023-04-19T10:35:33;94849.28;;;17.43;88.53
8298;BME280;4187;42.778;23.242;2023-04-19T10:38:09;94851.81;;;17.51;88.90
8298;BME280;4187;42.778;23.242;2023-04-19T10:40:56;94834.22;;;17.57;89.46
8298;BME280;4187;42.778;23.242;2023-04-19T10:43:26;94835.72;;;17.38;88.21
8298;BME280;4187;42.778;23.242;2023-04-19T10:45:54;94846.13;;;17.61;89.59
8298;BME280;4187;42.778;23.242;2023-04-19T10:48:40;94835.72;;;17.72;87.52
8298;BME280;4187;42.778;23.242;2023-04-19T10:51:13;94830.16;;;17.67;87.85
8298;BME280;4187;42.778;23.242;2023-04-19T10:53:45;94828.28;;;17.61;89.58
8298;BME280;4187;42.778;23.242;2023-04-19T10:56:14;94819.75;;;17.85;89.75
8298;BME280;4187;42.778;23.242;2023-04-19T10:59:16;94826.09;;;17.84;88.02
8298;BME280;4187;42.778;23.242;2023-04-19T11:01:53;94827.00;;;18.05;84.68
8298;BME280;4187;42.778;23.242;2023-04-19T11:04:23;94816.97;;;18.33;88.17
8298;BME280;4187;42.778;23.242;2023-04-19T11:07:00;94814.53;;;18.44;85.89
8298;BME280;4187;42.778;23.242;2023-04-19T11:09:30;94787.81;;;18.31;84.39
8298;BME280;4187;42.778;23.242;2023-04-19T11:12:02;94813.91;;;18.42;86.65
8298;BME280;4187;42.778;23.242;2023-04-19T11:14:31;94807.78;;;18.55;86.74
8298;BME280;4187;42.778;23.242;2023-04-19T11:17:02;94801.84;;;18.60;85.11
8298;BME280;4187;42.778;23.242;2023-04-19T11:19:29;94807.38;;;18.58;85.37
8298;BME280;4187;42.778;23.242;2023-04-19T11:21:57;94800.81;;;18.61;85.26
8298;BME280;4187;42.778;23.242;2023-04-19T11:24:25;94799.16;;;18.73;84.02
8298;BME280;4187;42.778;23.242;2023-04-19T11:26:54;94804.91;;;18.70;82.79
8298;BME280;4187;42.778;23.242;2023-04-19T11:29:23;94805.94;;;18.88;82.68
8298;BME280;4187;42.778;23.242;2023-04-19T11:31:50;94803.25;;;18.82;82.75
8298;BME280;4187;42.778;23.242;2023-04-19T11:34:22;94795.03;;;18.83;85.73
8298;BME280;4187;42.778;23.242;2023-04-19T11:36:50;94789.28;;;18.99;82.85
8298;BME280;4187;42.778;23.242;2023-04-19T11:39:17;94799.78;;;18.94;82.47
8298;BME280;4187;42.778;23.242;2023-04-19T11:41:44;94802.44;;;18.94;82.54
8298;BME280;4187;42.778;23.242;2023-04-19T11:44:13;94809.22;;;19.10;83.54
8298;BME280;4187;42.778;23.242;2023-04-19T11:46:41;94803.06;;;19.03;81.00
8298;BME280;4187;42.778;23.242;2023-04-19T11:49:08;94799.34;;;19.10;82.83
8298;BME280;4187;42.778;23.242;2023-04-19T11:51:40;94780.16;;;19.20;84.40
8298;BME280;4187;42.778;23.242;2023-04-19T11:54:14;94797.47;;;19.18;79.61
8298;BME280;4187;42.778;23.242;2023-04-19T11:56:59;94792.72;;;19.26;78.70
8298;BME280;4187;42.778;23.242;2023-04-19T11:59:28;94794.84;;;19.68;79.93
8298;BME280;4187;42.778;23.242;2023-04-19T12:02:03;94797.94;;;20.16;79.89
8298;BME280;4187;42.778;23.242;2023-04-19T12:04:30;94796.00;;;19.92;77.47
8298;BME280;4187;42.778;23.242;2023-04-19T12:06:58;94781.41;;;19.82;77.54
8298;BME280;4187;42.778;23.242;2023-04-19T12:09:25;94784.50;;;19.85;79.41
8298;BME280;4187;42.778;23.242;2023-04-19T12:11:53;94791.97;;;19.70;80.31
8298;BME280;4187;42.778;23.242;2023-04-19T12:14:21;94784.84;;;19.44;81.64
8298;BME280;4187;42.778;23.242;2023-04-19T12:17:09;94788.00;;;19.22;82.04
8298;BME280;4187;42.778;23.242;2023-04-19T12:19:43;94776.53;;;18.75;82.64
8298;BME280;4187;42.778;23.242;2023-04-19T12:22:12;94781.91;;;18.62;81.76
8298;BME280;4187;42.778;23.242;2023-04-19T12:24:39;94758.81;;;18.41;84.02
8298;BME280;4187;42.778;23.242;2023-04-19T12:27:07;94766.81;;;18.15;85.79
8298;BME280;4187;42.778;23.242;2023-04-19T12:29:34;94771.56;;;18.20;84.06
8298;BME280;4187;42.778;23.242;2023-04-19T12:32:02;94766.84;;;18.22;85.50
8298;BME280;4187;42.778;23.242;2023-04-19T12:34:31;94769.09;;;18.18;83.95
8298;BME280;4187;42.778;23.242;2023-04-19T12:36:58;94775.25;;;18.19;84.36
8298;BME280;4187;42.778;23.242;2023-04-19T12:39:25;94784.09;;;18.26;82.64
8298;BME280;4187;42.778;23.242;2023-04-19T12:41:53;94788.34;;;18.01;82.97
8298;BME280;4187;42.778;23.242;2023-04-19T12:44:20;94787.69;;;17.79;85.08
8298;BME280;4187;42.778;23.242;2023-04-19T12:46:47;94782.06;;;17.54;85.91
8298;BME280;4187;42.778;23.242;2023-04-19T12:52:07;94804.16;;;17.07;89.67
8298;BME280;4187;42.778;23.242;2023-04-19T12:54:34;94798.53;;;16.96;90.40
8298;BME280;4187;42.778;23.242;2023-04-19T12:57:01;94798.13;;;16.92;89.05
8298;BME280;4187;42.778;23.242;2023-04-19T12:59:28;94786.56;;;16.79;88.35
8298;BME280;4187;42.778;23.242;2023-04-19T13:01:55;94788.47;;;16.63;89.04
8298;BME280;4187;42.778;23.242;2023-04-19T13:04:23;94792.41;;;16.46;88.98
8298;BME280;4187;42.778;23.242;2023-04-19T13:06:50;94794.44;;;16.44;88.00
8298;BME280;4187;42.778;23.242;2023-04-19T13:09:18;94777.34;;;16.32;86.78
8298;BME280;4187;42.778;23.242;2023-04-19T13:11:45;94793.34;;;16.39;87.98
8298;BME280;4187;42.778;23.242;2023-04-19T13:14:12;94796.34;;;16.29;88.69